Time;durP1;ratioP1;P1;durP2;ratioP2;P2;SDS_P1;SDS_P2;PMS_P1;PMS_P2;Temp;Humidity;BMP_temperature;BMP_pressure;BME280_temperature;BME280_humidity;BME280_pressure;Samples;Min_cycle;Max_cycle;Signal;HPM_P1;HPM_P2
2022/05/31 00:00:10;;;;;;;9.93;5.97;;;9.40;99.90;;;;;;5053333;28;20120;-65
2022/05/31 00:02:36;;;;;;;8.07;4.88;;;9.40;99.90;;;;;;5052395;28;20039;-65
2022/05/31 00:05:02;;;;;;;8.98;5.50;;;9.40;99.90;;;;;;5034302;28;20051;-65
2022/05/31 00:07:28;;;;;;;8.30;5.90;;;9.30;99.90;;;;;;5052461;28;20448;-65
2022/05/31 00:09:53;;;;;;;7.82;5.55;;;9.50;99.90;;;;;;5052862;28;20396;-65
2022/05/31 00:12:19;;;;;;;8.43;5.45;;;9.20;99.90;;;;;;5051481;28;20039;-65
2022/05/31 00:14:45;;;;;;;9.07;5.63;;;9.20;99.90;;;;;;5052010;28;20509;-65
2022/05/31 00:17:11;;;;;;;8.20;5.25;;;9.20;99.90;;;;;;5052917;28;20084;-65
2022/05/31 00:19:37;;;;;;;7.05;4.97;;;9.10;99.90;;;;;;5050066;28;20049;-65
2022/05/31 00:22:14;;;;;;;7.75;4.93;;;9.20;99.90;;;;;;5051517;28;20489;-65
2022/05/31 00:24:41;;;;;;;6.90;4.68;;;9.10;99.90;;;;;;5051716;28;20098;-65
2022/05/31 00:27:09;;;;;;;12.90;5.35;;;9.00;99.90;;;;;;5051761;28;20037;-65
2022/05/31 00:29:34;;;;;;;6.60;4.50;;;9.00;99.90;;;;;;5052069;28;20128;-65
2022/05/31 00:32:03;;;;;;;8.23;5.47;;;9.00;99.90;;;;;;5051253;28;20112;-65
2022/05/31 00:34:32;;;;;;;8.20;4.80;;;9.00;99.90;;;;;;5050920;28;20040;-65
2022/05/31 00:36:57;;;;;;;8.10;4.93;;;9.00;99.90;;;;;;5052491;28;20041;-65
2022/05/31 00:39:23;;;;;;;8.50;5.60;;;8.90;99.90;;;;;;5051695;28;20414;-65
2022/05/31 00:42:17;;;;;;;7.75;5.28;;;8.90;99.90;;;;;;5051464;28;20033;-65
2022/05/31 00:44:43;;;;;;;8.18;4.63;;;8.90;99.90;;;;;;5050777;28;20048;-65
2022/05/31 00:47:32;;;;;;;9.52;5.10;;;8.90;99.90;;;;;;5051730;28;20041;-65
2022/05/31 00:50:10;;;;;;;8.45;4.80;;;8.90;99.90;;;;;;5050500;28;20056;-65
2022/05/31 00:52:42;;;;;;;7.68;5.72;;;8.90;99.90;;;;;;5051890;28;20059;-65
2022/05/31 00:55:17;;;;;;;6.30;4.30;;;8.90;99.90;;;;;;5050265;28;20053;-65
2022/05/31 00:57:52;;;;;;;8.48;5.10;;;8.80;99.90;;;;;;5052270;28;20047;-65
2022/05/31 01:00:18;;;;;;;8.95;5.40;;;9.20;99.90;;;;;;5034693;28;20128;-65
2022/05/31 01:02:46;;;;;;;7.63;4.75;;;8.80;99.90;;;;;;5050242;28;20044;-65
2022/05/31 01:05:13;;;;;;;7.75;5.25;;;9.10;99.90;;;;;;5051159;28;20095;-65
2022/05/31 01:07:40;;;;;;;9.25;4.78;;;9.20;99.90;;;;;;5051083;28;20037;-65
2022/05/31 01:10:08;;;;;;;7.82;5.05;;;9.00;99.90;;;;;;5049681;28;20098;-65
2022/05/31 01:12:35;;;;;;;7.57;5.18;;;8.90;99.90;;;;;;5052549;28;20056;-65
2022/05/31 01:15:01;;;;;;;8.93;4.88;;;8.90;99.90;;;;;;5033958;28;20040;-65
2022/05/31 01:17:27;;;;;;;7.00;4.75;;;8.80;99.90;;;;;;5050122;28;20052;-65
2022/05/31 01:19:57;;;;;;;7.82;4.45;;;8.80;99.90;;;;;;5050489;28;20061;-65
2022/05/31 01:22:36;;;;;;;8.07;4.93;;;8.90;99.90;;;;;;5050274;28;20490;-65
2022/05/31 01:25:17;;;;;;;6.65;4.78;;;9.20;99.90;;;;;;5050704;28;20102;-65
2022/05/31 01:28:17;;;;;;;8.18;4.75;;;9.10;99.90;;;;;;5052031;28;20044;-65
2022/05/31 01:30:58;;;;;;;9.23;4.88;;;8.90;99.90;;;;;;5050897;28;20056;-65
2022/05/31 01:33:30;;;;;;;8.25;5.07;;;8.90;99.90;;;;;;5034649;28;20373;-65
2022/05/31 01:36:04;;;;;;;7.38;5.00;;;9.00;99.90;;;;;;5051725;28;20045;-65
2022/05/31 01:38:39;;;;;;;7.85;5.35;;;8.90;99.90;;;;;;5050026;28;20401;-65
2022/05/31 01:41:13;;;;;;;9.40;5.20;;;8.90;99.90;;;;;;5051491;28;20494;-65
2022/05/31 01:43:43;;;;;;;8.68;5.22;;;8.80;99.90;;;;;;5049895;28;20121;-65
2022/05/31 01:46:16;;;;;;;7.95;5.45;;;8.90;99.90;;;;;;5050761;28;20056;-65
2022/05/31 01:48:43;;;;;;;7.25;4.90;;;8.90;99.90;;;;;;5051030;28;20390;-65
2022/05/31 01:51:11;;;;;;;7.38;4.60;;;8.90;99.90;;;;;;5049732;28;20053;-65
2022/05/31 01:53:37;;;;;;;7.00;4.78;;;9.00;99.90;;;;;;5050922;28;20421;-65
2022/05/31 01:56:03;;;;;;;7.70;4.45;;;9.40;99.90;;;;;;5050109;28;20055;-65
2022/05/31 01:58:34;;;;;;;6.13;3.95;;;8.80;99.90;;;;;;5050232;28;20033;-65
2022/05/31 02:01:02;;;;;;;8.57;4.80;;;8.70;99.90;;;;;;5050314;28;20124;-65
2022/05/31 02:03:30;;;;;;;7.07;4.63;;;8.80;99.90;;;;;;5051919;28;20055;-65
2022/05/31 02:05:55;;;;;;;9.18;4.90;;;8.80;99.90;;;;;;5049074;28;20123;-65
2022/05/31 02:08:24;;;;;;;8.55;4.65;;;8.90;99.90;;;;;;5050498;28;20117;-65
2022/05/31 02:10:50;;;;;;;9.07;4.97;;;9.00;99.90;;;;;;5051303;28;20087;-65
2022/05/31 02:13:17;;;;;;;8.18;5.28;;;9.20;99.90;;;;;;5050169;28;20041;-65
2022/05/31 02:15:44;;;;;;;7.82;5.13;;;9.40;99.90;;;;;;5051546;28;20436;-65
2022/05/31 02:18:12;;;;;;;6.72;4.15;;;9.50;99.90;;;;;;5050608;28;20057;-65
2022/05/31 02:20:38;;;;;;;6.75;4.10;;;9.00;99.90;;;;;;5049787;28;20167;-65
2022/05/31 02:23:05;;;;;;;7.78;4.60;;;9.10;99.90;;;;;;5051126;28;20041;-65
2022/05/31 02:25:30;;;;;;;7.57;4.75;;;9.00;99.90;;;;;;5050990;28;20405;-65
2022/05/31 02:27:56;;;;;;;6.22;4.20;;;9.20;99.90;;;;;;5049904;28;20033;-65
2022/05/31 02:30:22;;;;;;;7.68;4.03;;;9.10;99.90;;;;;;5050828;28;20443;-65
2022/05/31 02:32:47;;;;;;;9.07;5.28;;;9.10;99.90;;;;;;5049394;28;20577;-65
2022/05/31 02:35:14;;;;;;;6.43;4.05;;;9.20;99.90;;;;;;5051641;28;20111;-65
2022/05/31 02:37:40;;;;;;;8.50;4.35;;;9.30;99.90;;;;;;5050264;28;20049;-65
2022/05/31 02:40:07;;;;;;;6.38;4.22;;;9.30;99.90;;;;;;5050192;28;20048;-65
2022/05/31 02:42:36;;;;;;;8.50;4.30;;;9.20;99.90;;;;;;5052381;28;20409;-65
2022/05/31 02:45:07;;;;;;;12.52;4.30;;;9.40;99.90;;;;;;5053534;28;20102;-65
2022/05/31 02:47:32;;;;;;;8.25;4.50;;;9.40;99.90;;;;;;5054235;28;20060;-65
2022/05/31 02:49:58;;;;;;;7.75;4.32;;;9.20;99.90;;;;;;5053186;28;20157;-65
2022/05/31 02:52:23;;;;;;;7.07;4.53;;;9.20;99.90;;;;;;5053610;28;20057;-65
2022/05/31 02:54:49;;;;;;;5.72;3.63;;;9.60;99.90;;;;;;5052268;28;20040;-65
2022/05/31 02:57:15;;;;;;;6.18;3.53;;;9.30;99.90;;;;;;5053487;28;20047;-65
2022/05/31 02:59:40;;;;;;;6.85;3.85;;;9.50;99.90;;;;;;5053522;28;20037;-65
2022/05/31 03:02:06;;;;;;;7.55;4.63;;;9.30;99.90;;;;;;5052478;28;20033;-65
2022/05/31 03:04:32;;;;;;;8.07;4.25;;;9.50;99.90;;;;;;5053377;28;20579;-65
2022/05/31 03:07:02;;;;;;;6.13;4.00;;;9.30;99.90;;;;;;5053940;28;20486;-65
2022/05/31 03:09:30;;;;;;;7.40;4.13;;;9.40;99.90;;;;;;5053936;28;20049;-65
2022/05/31 03:12:00;;;;;;;6.03;3.58;;;9.60;99.90;;;;;;5052752;28;20049;-65
2022/05/31 03:14:32;;;;;;;6.28;3.85;;;9.50;99.90;;;;;;5036765;28;20055;-65
2022/05/31 03:17:05;;;;;;;6.65;4.18;;;9.30;99.90;;;;;;5053069;28;20494;-65
2022/05/31 03:19:37;;;;;;;6.30;3.78;;;9.40;99.90;;;;;;5052988;28;20119;-65
2022/05/31 03:22:07;;;;;;;5.75;3.75;;;9.30;99.90;;;;;;5051797;28;20152;-64
2022/05/31 03:24:39;;;;;;;6.38;4.10;;;9.40;99.90;;;;;;5054368;28;20083;-65
2022/05/31 03:27:08;;;;;;;6.95;4.00;;;9.50;99.90;;;;;;5052561;28;20048;-65
2022/05/31 03:29:37;;;;;;;7.78;4.50;;;9.40;99.90;;;;;;5052199;28;20056;-65
2022/05/31 03:32:04;;;;;;;5.85;3.80;;;9.40;99.90;;;;;;5053773;28;20044;-65
2022/05/31 03:34:30;;;;;;;8.57;4.38;;;9.40;99.90;;;;;;5036133;28;20051;-65
2022/05/31 03:36:55;;;;;;;6.22;4.40;;;9.90;99.90;;;;;;5052818;28;20041;-65
2022/05/31 03:39:21;;;;;;;5.63;3.90;;;9.60;99.90;;;;;;5053877;28;20041;-65
2022/05/31 03:41:46;;;;;;;5.90;3.55;;;9.50;99.90;;;;;;5052506;28;20478;-65
2022/05/31 03:44:12;;;;;;;5.95;3.95;;;9.50;99.90;;;;;;5051933;28;20045;-65
2022/05/31 03:46:38;;;;;;;7.18;4.45;;;9.60;99.90;;;;;;5036129;28;20490;-65
2022/05/31 03:49:03;;;;;;;5.72;3.72;;;9.50;99.90;;;;;;5053172;28;20379;-65
2022/05/31 03:51:29;;;;;;;5.45;3.70;;;9.60;99.90;;;;;;5051784;28;20050;-65
2022/05/31 03:53:54;;;;;;;6.47;4.30;;;10.20;99.90;;;;;;5051811;28;20036;-65
2022/05/31 03:56:20;;;;;;;6.57;3.67;;;9.60;99.90;;;;;;5036131;28;20048;-65
2022/05/31 03:58:46;;;;;;;9.38;4.10;;;9.60;99.90;;;;;;5051257;28;20548;-65
2022/05/31 04:01:11;;;;;;;6.03;3.53;;;9.60;99.90;;;;;;5052374;28;20115;-64
2022/05/31 04:03:37;;;;;;;6.70;4.18;;;9.80;99.90;;;;;;5053529;28;20063;-64
2022/05/31 04:06:03;;;;;;;6.90;3.90;;;9.70;99.90;;;;;;5052249;28;20472;-65
2022/05/31 04:08:28;;;;;;;7.78;4.60;;;9.60;99.90;;;;;;5053524;28;20111;-64
2022/05/31 04:10:55;;;;;;;7.43;4.30;;;9.80;99.90;;;;;;5052350;28;20107;-65
2022/05/31 04:13:22;;;;;;;7.80;5.10;;;9.60;99.90;;;;;;5051991;28;20049;-65
2022/05/31 04:15:48;;;;;;;9.45;4.50;;;10.10;99.90;;;;;;5052063;28;20371;-65
2022/05/31 04:18:14;;;;;;;7.05;3.80;;;9.80;99.90;;;;;;5052292;28;20064;-65
2022/05/31 04:20:42;;;;;;;9.30;4.85;;;9.70;99.90;;;;;;5035437;28;20041;-65
2022/05/31 04:26:06;;;;;;;6.75;3.95;;;10.10;99.90;;;;;;5052006;28;20044;-65
2022/05/31 04:28:31;;;;;;;9.80;4.13;;;9.70;99.90;;;;;;5051933;28;20045;-65
2022/05/31 04:30:57;;;;;;;7.13;4.13;;;9.70;99.90;;;;;;5051260;28;20051;-65
2022/05/31 04:33:23;;;;;;;7.32;5.05;;;9.90;99.90;;;;;;5050874;28;20401;-65
2022/05/31 04:36:01;;;;;;;7.65;4.30;;;9.90;99.90;;;;;;5051251;28;20041;-65
2022/05/31 04:38:27;;;;;;;7.22;4.10;;;9.80;99.90;;;;;;5051767;28;20037;-65
2022/05/31 04:40:53;;;;;;;6.18;3.97;;;10.00;99.90;;;;;;5051571;28;20052;-65
2022/05/31 04:43:18;;;;;;;9.18;4.55;;;10.10;99.90;;;;;;5052998;28;20032;-65
2022/05/31 04:45:44;;;;;;;7.13;4.97;;;9.80;99.90;;;;;;5051142;28;20036;-65
2022/05/31 04:48:09;;;;;;;6.30;4.32;;;10.10;99.90;;;;;;5051579;28;20468;-65
2022/05/31 04:50:35;;;;;;;7.28;4.07;;;9.90;99.90;;;;;;5051319;28;20048;-65
2022/05/31 04:53:01;;;;;;;6.05;3.85;;;9.90;99.90;;;;;;5051092;28;20104;-65
2022/05/31 04:55:29;;;;;;;6.45;4.15;;;10.10;99.90;;;;;;5052005;28;20044;-65
2022/05/31 04:57:54;;;;;;;6.55;4.25;;;10.00;99.90;;;;;;5034161;28;20506;-65
2022/05/31 05:00:21;;;;;;;7.75;4.07;;;10.10;99.90;;;;;;5051528;28;20036;-65
2022/05/31 05:02:47;;;;;;;8.38;4.20;;;10.00;99.90;;;;;;5051174;28;20068;-65
2022/05/31 05:05:12;;;;;;;6.65;3.95;;;9.70;99.90;;;;;;5051635;28;20572;-65
2022/05/31 05:07:38;;;;;;;7.28;4.65;;;9.90;99.90;;;;;;5050474;28;20559;-65
2022/05/31 05:10:08;;;;;;;7.78;3.92;;;9.90;99.90;;;;;;5050641;28;20130;-65
2022/05/31 05:12:34;;;;;;;9.77;4.60;;;9.90;99.90;;;;;;5051287;28;20091;-65
2022/05/31 05:15:00;;;;;;;5.68;3.47;;;;;;;;;;5049641;28;20040;-65
2022/05/31 05:17:26;;;;;;;7.55;4.00;;;;;;;;;;5050979;28;20128;-65
2022/05/31 05:19:53;;;;;;;7.53;4.72;;;;;;;;;;5017261;28;20048;-65
2022/05/31 05:22:19;;;;;;;9.75;4.43;;;;;;;;;;5051636;28;20048;-65
2022/05/31 05:24:45;;;;;;;8.40;3.80;;;;;;;;;;5052024;28;20041;-65
2022/05/31 05:27:11;;;;;;;9.20;5.32;;;;;;;;;;5051839;28;20456;-65
2022/05/31 05:32:22;;;;;;;6.93;4.60;;;;;;;;;;5051162;28;20399;-65
2022/05/31 05:34:55;;;;;;;6.88;4.30;;;;;;;;;;5051856;28;20324;-65
2022/05/31 05:37:21;;;;;;;6.53;4.22;;;;;;;;;;5051391;28;20067;-65
2022/05/31 05:39:47;;;;;;;8.70;4.72;;;;;;;;;;5034132;28;20486;-65
2022/05/31 05:42:14;;;;;;;8.45;4.63;;;;;;;;;;5050669;28;20045;-64
2022/05/31 05:44:40;;;;;;;8.05;5.13;;;;;;;;;;5049704;28;20041;-65
2022/05/31 05:47:07;;;;;;;8.23;4.95;;;;;;;;;;5033592;28;20051;-65
2022/05/31 05:49:33;;;;;;;7.38;4.35;;;;;;;;;;5033437;28;20175;-65
2022/05/31 05:52:00;;;;;;;7.25;4.53;;;;;;;;;;5050360;28;20511;-65
2022/05/31 05:54:26;;;;;;;8.13;4.63;;;;;;;;;;5051881;28;20493;-64
2022/05/31 05:56:52;;;;;;;6.75;4.57;;;;;;;;;;5050723;28;20048;-65
2022/05/31 05:59:20;;;;;;;6.85;4.60;;;;;;;;;;5051858;28;20120;-65
2022/05/31 06:01:48;;;;;;;7.00;4.47;;;;;;;;;;5050652;28;20071;-64
2022/05/31 06:04:18;;;;;;;6.78;4.55;;;;;;;;;;5050134;28;20037;-65
2022/05/31 06:06:45;;;;;;;8.27;5.20;;;;;;;;;;5051650;28;20154;-65
2022/05/31 06:09:14;;;;;;;6.90;4.78;;;;;;;;;;5050207;28;20136;-65
2022/05/31 06:11:43;;;;;;;7.55;5.05;;;;;;;;;;5049813;28;20045;-65
2022/05/31 06:14:19;;;;;;;8.55;4.78;;;10.80;99.90;;;;;;5050285;28;20803;-64
2022/05/31 06:17:13;;;;;;;8.20;4.75;;;10.90;99.90;;;;;;5051948;28;20103;-64
2022/05/31 06:19:40;;;;;;;6.32;4.25;;;10.90;99.90;;;;;;5051515;28;20052;-64
2022/05/31 06:22:07;;;;;;;9.05;4.72;;;10.90;99.90;;;;;;5034392;28;20037;-65
2022/05/31 06:24:35;;;;;;;9.13;4.85;;;10.90;99.90;;;;;;5044713;28;20037;-64
2022/05/31 06:27:01;;;;;;;9.00;4.85;;;11.00;99.90;;;;;;5037627;28;20436;-65
2022/05/31 06:29:27;;;;;;;8.18;4.88;;;11.00;99.90;;;;;;5055184;28;20037;-64
2022/05/31 06:31:53;;;;;;;8.10;3.90;;;11.00;99.90;;;;;;5052803;28;20143;-64
2022/05/31 06:34:19;;;;;;;6.40;4.15;;;11.10;99.90;;;;;;5054242;28;20089;-64
2022/05/31 06:36:45;;;;;;;6.90;3.75;;;11.10;99.90;;;;;;5040767;28;20076;-65
2022/05/31 06:39:11;;;;;;;7.57;4.57;;;11.10;99.90;;;;;;5050749;28;20045;-64
2022/05/31 06:41:37;;;;;;;8.20;4.15;;;11.10;99.90;;;;;;5034596;28;20065;-63
2022/05/31 06:44:03;;;;;;;6.28;3.22;;;11.10;99.90;;;;;;5041149;28;20037;-63
2022/05/31 06:46:30;;;;;;;7.90;4.53;;;11.10;99.90;;;;;;5043910;28;20048;-65
2022/05/31 06:48:57;;;;;;;6.45;4.03;;;11.10;99.90;;;;;;5053030;28;20037;-64
2022/05/31 06:56:57;;;;;;;7.38;4.88;;;11.20;99.90;;;;;;5032258;28;20124;-64
2022/05/31 06:59:23;;;;;;;8.25;5.03;;;11.10;99.90;;;;;;5059231;28;20500;-64
2022/05/31 07:01:48;;;;;;;9.98;5.25;;;11.10;99.90;;;;;;5045367;28;20037;-64
2022/05/31 07:04:15;;;;;;;7.82;5.13;;;11.10;99.90;;;;;;5053335;28;20094;-64
2022/05/31 07:06:41;;;;;;;8.98;5.03;;;11.20;99.90;;;;;;5058934;28;20086;-64
2022/05/31 07:09:07;;;;;;;7.65;3.83;;;11.20;99.90;;;;;;5038475;28;20133;-64
2022/05/31 07:11:33;;;;;;;7.75;4.35;;;11.30;99.90;;;;;;5048984;28;20037;-64
2022/05/31 07:14:00;;;;;;;7.53;4.43;;;11.40;99.90;;;;;;5048501;28;20053;-64
2022/05/31 07:16:26;;;;;;;9.02;4.38;;;11.40;99.90;;;;;;5050000;28;20045;-64
2022/05/31 07:18:52;;;;;;;8.30;4.97;;;11.50;99.90;;;;;;5049596;28;20057;-64
2022/05/31 07:21:17;;;;;;;6.85;4.18;;;11.50;99.90;;;;;;5050001;28;20055;-64
2022/05/31 07:23:43;;;;;;;7.68;4.30;;;11.60;99.90;;;;;;5051910;28;20083;-64
2022/05/31 07:26:12;;;;;;;7.25;4.53;;;11.60;99.90;;;;;;5033756;28;20056;-64
2022/05/31 07:28:39;;;;;;;7.15;4.63;;;11.70;99.90;;;;;;5048627;28;20120;-64
2022/05/31 07:31:05;;;;;;;7.45;5.03;;;;;;;;;;5049697;28;20041;-65
2022/05/31 07:33:31;;;;;;;9.93;4.80;;;;;;;;;;5050227;28;20045;-64
2022/05/31 07:35:57;;;;;;;11.25;4.95;;;;;;;;;;5048876;28;20084;-64
2022/05/31 07:38:26;;;;;;;8.60;5.10;;;;;;;;;;5030461;28;20037;-65
2022/05/31 07:40:53;;;;;;;6.68;4.40;;;12.00;99.90;;;;;;5029112;28;20048;-64
2022/05/31 07:43:18;;;;;;;8.73;4.90;;;12.00;99.90;;;;;;5043349;28;20053;-64
2022/05/31 07:45:44;;;;;;;6.35;4.28;;;11.90;99.90;;;;;;5046566;28;20037;-64
2022/05/31 07:48:10;;;;;;;6.13;4.00;;;12.00;99.90;;;;;;5046564;28;20067;-64
2022/05/31 07:50:36;;;;;;;9.07;4.40;;;12.10;99.90;;;;;;5045838;28;20049;-64
2022/05/31 07:53:03;;;;;;;7.78;4.75;;;12.10;99.90;;;;;;5042184;28;20408;-64
2022/05/31 07:55:29;;;;;;;7.88;4.57;;;12.20;99.90;;;;;;5050902;28;20540;-65
2022/05/31 08:00:40;;;;;;;9.83;5.60;;;12.30;99.90;;;;;;5049467;28;20048;-64
2022/05/31 08:03:06;;;;;;;8.85;4.57;;;12.30;99.90;;;;;;5055893;28;20296;-64
2022/05/31 08:05:35;;;;;;;8.85;5.10;;;12.40;99.90;;;;;;5041875;28;20413;-65
2022/05/31 08:08:01;;;;;;;8.57;4.97;;;;;;;;;;5064867;28;20478;-65
2022/05/31 08:10:28;;;;;;;8.68;4.90;;;;;;;;;;5051637;28;20444;-64
2022/05/31 08:12:54;;;;;;;7.72;4.65;;;;;;;;;;5048406;28;20044;-65
2022/05/31 08:15:20;;;;;;;7.85;4.80;;;12.90;99.90;;;;;;5027728;28;20048;-63
2022/05/31 08:17:46;;;;;;;12.70;4.82;;;12.90;99.90;;;;;;5040459;28;20037;-63
2022/05/31 08:20:13;;;;;;;7.25;4.60;;;12.90;99.90;;;;;;5049599;28;20040;-63
2022/05/31 08:22:40;;;;;;;7.22;4.75;;;;;;;;;;5057029;28;20106;-63
2022/05/31 08:25:07;;;;;;;7.97;4.30;;;;;;;;;;5055388;28;20041;-63
2022/05/31 08:27:34;;;;;;;9.23;4.60;;;13.40;99.90;;;;;;5042153;28;20128;-63
2022/05/31 08:30:03;;;;;;;7.00;4.88;;;;;;;;;;5040696;28;20049;-63
2022/05/31 08:32:29;;;;;;;8.75;4.75;;;;;;;;;;5047838;28;20131;-64
2022/05/31 08:34:55;;;;;;;7.68;4.85;;;;;;;;;;5033365;28;20049;-64
2022/05/31 08:37:21;;;;;;;8.05;5.15;;;13.70;99.90;;;;;;5048585;28;20051;-64
2022/05/31 08:39:47;;;;;;;7.88;5.38;;;13.70;99.90;;;;;;5032156;28;20053;-63
2022/05/31 08:42:40;;;;;;;7.88;4.65;;;13.80;99.90;;;;;;5030654;28;20111;-65
2022/05/31 08:45:22;;;;;;;6.15;3.78;;;14.00;99.90;;;;;;5030199;28;20038;-66
2022/05/31 08:48:21;;;;;;;7.03;4.70;;;14.10;99.90;;;;;;5030244;28;20060;-65
2022/05/31 08:56:56;;;;;;;10.10;4.90;;;14.30;99.90;;;;;;5045202;28;20455;-65
2022/05/31 08:56:57;;;;;;;10.05;4.50;;;14.30;99.90;;;;;;5030771;28;20049;-65
2022/05/31 08:59:43;;;;;;;11.63;4.57;;;14.40;99.90;;;;;;5032625;28;20047;-64
2022/05/31 09:02:29;;;;;;;7.40;4.78;;;14.60;99.90;;;;;;5037656;28;20418;-64
2022/05/31 09:05:06;;;;;;;7.57;4.28;;;14.80;99.90;;;;;;5051019;28;20037;-64
2022/05/31 09:07:44;;;;;;;18.02;5.35;;;14.90;99.90;;;;;;5036348;28;20041;-63
2022/05/31 09:10:25;;;;;;;7.22;4.43;;;15.00;99.90;;;;;;5032366;28;20053;-64
2022/05/31 09:12:57;;;;;;;6.85;3.97;;;15.20;99.90;;;;;;5040477;28;20098;-64
2022/05/31 09:15:33;;;;;;;6.68;4.65;;;15.30;99.90;;;;;;5050404;28;20439;-64
2022/05/31 09:18:04;;;;;;;7.60;4.43;;;;;;;;;;5050270;28;20398;-64
2022/05/31 09:20:49;;;;;;;7.82;4.22;;;15.60;99.90;;;;;;5027522;28;20482;-64
2022/05/31 09:23:25;;;;;;;7.90;3.97;;;15.70;99.90;;;;;;5034499;28;20397;-65
2022/05/31 09:26:16;;;;;;;7.85;4.47;;;15.80;99.90;;;;;;5051397;28;20037;-64
2022/05/31 09:28:53;;;;;;;7.18;4.28;;;15.70;99.90;;;;;;5040019;28;20394;-65
2022/05/31 09:31:27;;;;;;;7.35;4.30;;;15.60;99.90;;;;;;5052189;28;20076;-64
2022/05/31 09:34:34;;;;;;;8.85;5.07;;;15.50;99.90;;;;;;5050489;28;20371;-64
2022/05/31 09:37:10;;;;;;;8.18;4.55;;;15.40;99.90;;;;;;5043256;28;20120;-65
2022/05/31 09:39:42;;;;;;;7.68;5.03;;;15.40;99.90;;;;;;5039973;28;20045;-65
2022/05/31 09:42:21;;;;;;;8.30;5.50;;;15.40;99.90;;;;;;5036037;28;20053;-65
2022/05/31 09:45:03;;;;;;;7.05;4.80;;;15.50;99.90;;;;;;5034301;28;20037;-65
2022/05/31 09:47:29;;;;;;;8.45;5.72;;;15.60;99.90;;;;;;5046592;28;20068;-65
2022/05/31 09:49:55;;;;;;;6.20;4.50;;;15.70;99.90;;;;;;5035618;28;20458;-62
2022/05/31 09:52:30;;;;;;;7.82;5.13;;;15.80;99.90;;;;;;5053225;28;20167;-61
2022/05/31 09:58:12;;;;;;;8.70;5.05;;;15.90;99.90;;;;;;5041811;28;20053;-64
2022/05/31 10:01:14;;;;;;;9.10;5.40;;;15.80;99.90;;;;;;5035977;28;20049;-65
2022/05/31 10:03:40;;;;;;;9.90;5.70;;;15.80;99.90;;;;;;5036821;28;20044;-66
2022/05/31 10:06:16;;;;;;;6.85;5.13;;;15.70;99.90;;;;;;5035385;28;20091;-66
2022/05/31 10:08:43;;;;;;;10.70;6.32;;;15.70;99.90;;;;;;5045797;28;20072;-66
2022/05/31 10:11:12;;;;;;;9.80;6.68;;;15.80;99.90;;;;;;5067371;28;20536;-66
2022/05/31 10:13:39;;;;;;;8.95;5.45;;;16.00;99.90;;;;;;5052694;28;20036;-66
2022/05/31 10:16:10;;;;;;;7.72;5.20;;;16.00;99.90;;;;;;5053943;28;20051;-66
2022/05/31 10:18:52;;;;;;;7.05;5.05;;;16.10;99.90;;;;;;5053061;28;20450;-64
2022/05/31 10:21:34;;;;;;;8.77;5.20;;;16.00;99.90;;;;;;5055681;28;20140;-64
2022/05/31 10:24:18;;;;;;;13.98;6.40;;;16.00;99.90;;;;;;5043784;28;20041;-65
2022/05/31 10:26:46;;;;;;;8.65;5.63;;;16.20;99.90;;;;;;5054448;28;20044;-66
2022/05/31 10:29:18;;;;;;;9.20;5.90;;;16.30;99.90;;;;;;5041768;28;20117;-66
2022/05/31 10:31:47;;;;;;;9.02;5.43;;;16.40;99.90;;;;;;5034287;28;20065;-66
2022/05/31 10:34:34;;;;;;;8.52;5.25;;;16.50;99.90;;;;;;5034992;28;20041;-66
2022/05/31 10:37:01;;;;;;;9.50;6.18;;;16.80;99.90;;;;;;5035987;28;20080;-66
2022/05/31 10:39:31;;;;;;;8.93;5.80;;;16.70;99.90;;;;;;5035097;28;20041;-66
2022/05/31 10:42:02;;;;;;;13.18;6.18;;;16.80;99.90;;;;;;5034689;28;20550;-66
2022/05/31 10:44:34;;;;;;;8.80;5.32;;;;;;;;;;5035393;28;20073;-67
2022/05/31 10:47:03;;;;;;;9.00;5.80;;;;;;;;;;5032955;28;20037;-67
2022/05/31 10:49:30;;;;;;;10.40;5.82;;;;;;;;;;5031128;28;20032;-67
2022/05/31 10:52:06;;;;;;;11.45;6.03;;;;;;;;;;5040526;28;20361;-67
2022/05/31 10:54:40;;;;;;;10.65;6.00;;;;;;;;;;5046359;28;20056;-67
2022/05/31 10:57:09;;;;;;;8.32;5.10;;;;;;;;;;5052734;28;20089;-68
2022/05/31 10:59:36;;;;;;;9.32;5.03;;;;;;;;;;5065857;28;20040;-68
2022/05/31 11:02:25;;;;;;;7.90;4.97;;;17.50;95.90;;;;;;5041581;28;20590;-68
2022/05/31 11:05:00;;;;;;;8.98;4.90;;;17.50;96.40;;;;;;5048221;28;20053;-67
2022/05/31 11:11:30;;;;;;;8.07;5.30;;;17.70;95.70;;;;;;5032126;28;20045;-65
2022/05/31 11:14:11;;;;;;;;;;;17.90;93.60;;;;;;5050316;28;20032;-65
2022/05/31 11:17:06;;;;;;;7.57;5.82;;;17.80;95.20;;;;;;5063336;28;19950;-66
2022/05/31 11:19:43;;;;;;;11.30;5.75;;;17.60;94.20;;;;;;5033412;28;20046;-68
2022/05/31 11:22:47;;;;;;;11.45;6.63;;;17.50;94.40;;;;;;5067129;28;20041;-68
2022/05/31 11:26:01;;;;;;;9.18;6.15;;;17.50;95.70;;;;;;5051377;28;20102;-68
2022/05/31 11:28:30;;;;;;;10.30;6.35;;;17.60;96.30;;;;;;5052206;28;20505;-68
2022/05/31 11:30:55;;;;;;;9.73;6.60;;;17.60;95.10;;;;;;5052458;28;20043;-68
2022/05/31 11:34:09;;;;;;;9.60;5.95;;;17.70;95.20;;;;;;5051800;28;20405;-68
2022/05/31 11:36:38;;;;;;;9.95;5.75;;;17.90;94.10;;;;;;5043969;28;20053;-68
2022/05/31 11:39:16;;;;;;;10.20;6.38;;;18.00;93.60;;;;;;5052144;28;20052;-68
2022/05/31 11:41:42;;;;;;;12.68;5.68;;;18.10;93.50;;;;;;5053507;28;20044;-68
2022/05/31 11:44:40;;;;;;;7.82;5.43;;;18.10;93.50;;;;;;5036144;28;20769;-68
2022/05/31 11:47:42;;;;;;;8.10;5.57;;;18.20;91.00;;;;;;5051494;28;20045;-68
2022/05/31 11:50:11;;;;;;;13.13;6.07;;;18.30;92.50;;;;;;5051637;28;20556;-68
2022/05/31 11:52:41;;;;;;;7.40;5.25;;;;;;;;;;5052661;28;20041;-68
2022/05/31 11:57:54;;;;;;;9.35;5.55;;;;;;;;;;5053248;28;20049;-68
2022/05/31 12:00:20;;;;;;;7.90;5.28;;;;;;;;;;5052394;28;20045;-68
2022/05/31 12:02:51;;;;;;;8.27;5.32;;;;;;;;;;5051455;28;20033;-68
2022/05/31 12:05:29;;;;;;;8.40;5.60;;;;;;;;;;5053710;28;20037;-68
2022/05/31 12:08:07;;;;;;;9.02;4.65;;;;;;;;;;5052945;28;20045;-68
2022/05/31 12:10:38;;;;;;;7.82;5.03;;;;;;;;;;5051723;28;20048;-68
2022/05/31 12:13:07;;;;;;;6.90;4.75;;;;;;;;;;5051866;28;20037;-68
2022/05/31 12:15:35;;;;;;;7.18;5.07;;;;;;;;;;5035804;28;20048;-68
2022/05/31 12:18:16;;;;;;;10.40;4.90;;;;;;;;;;5033882;28;20057;-68
2022/05/31 12:20:46;;;;;;;8.50;4.70;;;;;;;;;;5052030;28;20049;-68
2022/05/31 12:23:18;;;;;;;8.13;5.38;;;;;;;;;;5051790;28;20049;-68
2022/05/31 12:25:48;;;;;;;10.48;5.93;;;;;;;;;;5052882;28;20037;-68
2022/05/31 12:28:19;;;;;;;6.38;4.50;;;;;;;;;;5053103;28;20048;-68
2022/05/31 12:31:03;;;;;;;9.50;4.85;;;;;;;;;;5051057;28;20127;-68
2022/05/31 12:33:39;;;;;;;8.02;4.28;;;;;;;;;;5053183;28;20422;-68
2022/05/31 12:36:09;;;;;;;8.57;4.82;;;;;;;;;;5051307;28;20056;-68
2022/05/31 12:38:53;;;;;;;8.00;4.18;;;17.60;99.90;;;;;;5052283;28;20052;-68
2022/05/31 12:41:32;;;;;;;8.05;4.28;;;17.50;99.90;;;;;;5035027;28;20094;-68
2022/05/31 12:43:59;;;;;;;9.10;5.03;;;17.30;86.50;;;;;;5051259;28;20044;-68
2022/05/31 12:46:41;;;;;;;8.60;4.45;;;;;;;;;;5052118;28;20037;-68
2022/05/31 12:49:25;;;;;;;8.63;4.25;;;;;;;;;;5034491;28;20041;-68
2022/05/31 12:55:33;;;;;;;6.95;4.50;;;16.60;99.90;;;;;;5040104;28;20049;-69
2022/05/31 12:58:35;;;;;;;9.23;5.22;;;16.20;99.40;;;;;;5033647;28;20055;-69
2022/05/31 13:01:09;;;;;;;7.85;4.55;;;16.10;99.90;;;;;;5050752;28;20045;-69
2022/05/31 13:03:35;;;;;;;8.20;4.55;;;16.00;99.90;;;;;;5051343;28;20036;-69
2022/05/31 13:06:00;;;;;;;9.57;5.78;;;15.80;99.90;;;;;;5049918;28;20036;-67
2022/05/31 13:20:11;;;;;;;7.68;5.55;;;15.60;99.90;;;;;;5050871;28;20128;-71
2022/05/31 13:22:41;;;;;;;7.13;4.75;;;15.60;99.90;;;;;;5034461;28;20044;-71
2022/05/31 13:25:41;;;;;;;9.40;5.88;;;15.70;99.90;;;;;;5047287;28;20120;-71
2022/05/31 13:28:07;;;;;;;10.82;5.55;;;15.80;99.90;;;;;;5028172;28;20124;-71
2022/05/31 13:30:41;;;;;;;8.68;6.00;;;15.90;99.90;;;;;;5034351;28;20120;-71
2022/05/31 13:33:21;;;;;;;8.48;5.45;;;16.00;99.90;;;;;;5040474;28;20049;-71
2022/05/31 13:36:04;;;;;;;9.98;6.47;;;16.00;99.90;;;;;;5040585;28;20037;-71
2022/05/31 13:38:36;;;;;;;10.07;5.88;;;16.10;99.90;;;;;;5052440;28;20112;-71
2022/05/31 13:41:04;;;;;;;10.52;6.80;;;16.00;99.90;;;;;;5046663;28;20044;-71
2022/05/31 13:43:35;;;;;;;11.68;6.95;;;16.00;99.90;;;;;;5048554;28;20500;-74
2022/05/31 13:46:11;;;;;;;12.05;7.18;;;;;;;;;;5055867;28;20065;-72
2022/05/31 13:48:42;;;;;;;11.38;8.15;;;;;;;;;;5045888;28;20044;-71
2022/05/31 13:51:17;;;;;;;10.43;7.95;;;15.00;99.90;;;;;;5062559;28;20112;-71
2022/05/31 13:53:44;;;;;;;10.02;8.18;;;14.90;99.90;;;;;;5049712;28;20045;-71
2022/05/31 13:56:16;;;;;;;11.20;8.93;;;14.60;99.90;;;;;;5055872;28;20072;-71
2022/05/31 13:58:42;;;;;;;12.32;8.93;;;14.40;99.90;;;;;;5059156;28;20041;-71
2022/05/31 14:01:38;;;;;;;13.57;8.45;;;14.20;99.90;;;;;;5054186;28;20043;-71
2022/05/31 14:04:12;;;;;;;11.15;9.75;;;14.10;99.90;;;;;;5030398;28;20047;-71
2022/05/31 14:06:39;;;;;;;13.45;9.10;;;13.90;99.90;;;;;;5050072;28;20041;-71
2022/05/31 14:09:08;;;;;;;12.48;9.32;;;;;;;;;;5030485;28;20146;-71
2022/05/31 14:11:55;;;;;;;12.02;9.48;;;13.70;99.90;;;;;;5049367;28;20047;-71